Time;durP1;ratioP1;P1;durP2;ratioP2;P2;SDS_P1;SDS_P2;PMS_P1;PMS_P2;Temp;Humidity;BMP_temperature;BMP_pressure;BME280_temperature;BME280_humidity;BME280_pressure;Samples;Min_cycle;Max_cycle;Signal;HPM_P1;HPM_P2
2023/04/11 00:01:10;;;;;;;2.37;1.30;;;12.10;99.90;;;;;;5054586;28;20457;-56
2023/04/11 00:03:37;;;;;;;3.90;1.60;;;12.10;99.90;;;;;;5054408;28;20472;-56
2023/04/11 00:06:06;;;;;;;9.13;2.10;;;12.10;99.90;;;;;;5054500;28;20449;-56
2023/04/11 00:08:33;;;;;;;4.53;2.17;;;12.00;99.90;;;;;;5054708;28;20445;-56
2023/04/11 00:10:59;;;;;;;6.97;2.10;;;11.90;99.90;;;;;;5053974;28;20445;-56
2023/04/11 00:13:26;;;;;;;5.10;2.00;;;11.80;99.90;;;;;;5054318;28;20488;-56
2023/04/11 00:15:54;;;;;;;6.27;1.90;;;11.80;99.90;;;;;;5054202;28;20488;-56
2023/04/11 00:18:21;;;;;;;5.03;2.17;;;11.80;99.90;;;;;;5054156;28;20477;-56
2023/04/11 00:20:48;;;;;;;16.97;3.53;;;11.80;99.90;;;;;;5053802;28;20540;-56
2023/04/11 00:23:17;;;;;;;11.10;2.30;;;11.80;99.90;;;;;;5054009;28;20450;-56
2023/04/11 00:25:43;;;;;;;5.40;1.57;;;11.70;99.90;;;;;;5054034;28;20456;-56
2023/04/11 00:28:10;;;;;;;12.70;2.90;;;11.70;99.90;;;;;;5054103;28;20520;-56
2023/04/11 00:30:37;;;;;;;11.17;3.20;;;11.70;99.90;;;;;;5053991;28;20457;-56
2023/04/11 00:33:04;;;;;;;4.80;2.03;;;11.60;99.90;;;;;;5053986;28;20449;-56
2023/04/11 00:35:33;;;;;;;5.10;2.00;;;11.60;99.90;;;;;;5053838;28;20453;-56
2023/04/11 00:38:01;;;;;;;10.00;2.73;;;11.50;99.90;;;;;;5053940;28;20464;-56
2023/04/11 00:40:30;;;;;;;10.40;2.33;;;11.50;99.90;;;;;;5054354;28;20453;-56
2023/04/11 00:42:57;;;;;;;7.70;2.80;;;11.50;99.90;;;;;;5053475;28;20508;-56
2023/04/11 00:45:23;;;;;;;7.77;2.63;;;11.50;99.90;;;;;;5053322;28;20955;-56
2023/04/11 00:47:51;;;;;;;8.67;2.57;;;11.50;99.90;;;;;;5053317;28;20947;-56
2023/04/11 00:50:20;;;;;;;7.43;2.80;;;11.50;99.90;;;;;;5053734;28;20930;-56
2023/04/11 00:52:49;;;;;;;8.97;2.33;;;11.50;99.90;;;;;;5053283;28;20822;-56
2023/04/11 00:55:16;;;;;;;13.33;2.60;;;11.40;99.90;;;;;;5053478;28;20470;-56
2023/04/11 00:57:45;;;;;;;15.40;3.20;;;11.40;99.90;;;;;;5053111;28;20896;-56
2023/04/11 01:00:13;;;;;;;8.70;2.53;;;11.40;99.90;;;;;;5053251;28;20943;-56
2023/04/11 01:02:41;;;;;;;10.50;2.73;;;11.30;99.90;;;;;;5053539;28;20449;-57
2023/04/11 01:05:09;;;;;;;12.40;2.60;;;11.40;99.90;;;;;;5053114;28;20963;-56
2023/04/11 01:07:38;;;;;;;13.20;3.10;;;11.30;99.90;;;;;;5053421;28;20448;-56
2023/04/11 01:10:06;;;;;;;14.17;2.90;;;11.30;99.90;;;;;;5053470;28;20442;-56
2023/04/11 01:12:33;;;;;;;8.67;3.13;;;11.30;99.90;;;;;;5053339;28;20947;-56
2023/04/11 01:15:02;;;;;;;8.67;2.33;;;11.20;99.90;;;;;;5053281;28;20879;-56
2023/04/11 01:17:31;;;;;;;15.23;3.50;;;11.20;99.90;;;;;;5052944;28;20847;-56
2023/04/11 01:19:58;;;;;;;9.23;2.77;;;11.20;99.90;;;;;;5053414;28;20499;-56
2023/04/11 01:22:26;;;;;;;12.77;2.80;;;11.20;99.90;;;;;;5052981;28;20458;-56
2023/04/11 01:24:55;;;;;;;9.77;2.53;;;11.20;99.90;;;;;;5052950;28;20847;-57
2023/04/11 01:27:22;;;;;;;13.53;2.87;;;11.20;99.90;;;;;;5052913;28;20481;-56
2023/04/11 01:29:48;;;;;;;15.23;3.47;;;11.20;99.90;;;;;;5053036;28;20849;-56
2023/04/11 01:32:15;;;;;;;13.43;2.60;;;11.30;99.90;;;;;;5053884;28;20453;-56
2023/04/11 01:34:44;;;;;;;12.50;3.50;;;11.30;99.90;;;;;;5057300;28;20476;-56
2023/04/11 01:37:11;;;;;;;11.83;2.90;;;11.30;99.90;;;;;;5057304;28;20559;-56
2023/04/11 01:39:37;;;;;;;11.47;2.87;;;11.20;99.90;;;;;;5057292;28;20440;-56
2023/04/11 01:42:06;;;;;;;9.73;2.73;;;11.20;99.90;;;;;;5057047;28;20471;-56
2023/04/11 01:44:36;;;;;;;21.10;3.87;;;11.20;99.90;;;;;;5057156;28;20465;-56
2023/04/11 01:47:02;;;;;;;12.90;3.20;;;11.10;99.90;;;;;;5056887;28;20939;-57
2023/04/11 01:49:29;;;;;;;20.20;3.43;;;11.00;99.90;;;;;;5056837;28;20451;-57
2023/04/11 01:51:56;;;;;;;14.43;2.83;;;11.00;99.90;;;;;;5057118;28;20456;-56
2023/04/11 01:54:22;;;;;;;12.17;3.20;;;11.00;99.90;;;;;;5056787;28;20978;-56
2023/04/11 01:56:51;;;;;;;17.30;3.77;;;11.00;99.90;;;;;;5057098;28;20508;-56
2023/04/11 01:59:19;;;;;;;11.90;3.47;;;10.90;99.90;;;;;;5056992;28;20476;-56
2023/04/11 02:01:45;;;;;;;24.33;3.57;;;10.90;99.90;;;;;;5057030;28;20442;-56
2023/04/11 02:04:12;;;;;;;13.97;3.77;;;10.90;99.90;;;;;;5057131;28;20495;-56
2023/04/11 02:06:39;;;;;;;17.00;3.80;;;10.90;99.90;;;;;;5057026;28;20510;-56
2023/04/11 02:09:06;;;;;;;13.17;4.00;;;10.80;99.90;;;;;;5056723;28;20843;-56
2023/04/11 02:11:33;;;;;;;23.33;4.37;;;10.80;99.90;;;;;;5056880;28;20453;-56
2023/04/11 02:14:01;;;;;;;17.80;3.13;;;10.80;99.90;;;;;;5056702;28;20473;-56
2023/04/11 02:16:29;;;;;;;15.33;3.90;;;10.80;99.90;;;;;;5056986;28;20630;-56
2023/04/11 02:18:56;;;;;;;12.90;3.03;;;10.70;99.90;;;;;;5056350;28;20981;-56
2023/04/11 02:21:23;;;;;;;13.80;2.97;;;10.70;99.90;;;;;;5056294;28;20545;-56
2023/04/11 02:23:50;;;;;;;20.60;4.03;;;10.70;99.90;;;;;;5056507;28;20472;-56
2023/04/11 02:26:16;;;;;;;12.40;3.43;;;10.60;99.90;;;;;;5056544;28;20911;-56
2023/04/11 02:28:43;;;;;;;13.80;3.57;;;10.50;99.90;;;;;;5056393;28;20457;-57
2023/04/11 02:31:10;;;;;;;21.70;3.73;;;10.50;99.90;;;;;;5056341;28;20511;-57
2023/04/11 02:33:38;;;;;;;14.80;3.97;;;10.50;99.90;;;;;;5056185;28;20473;-57
2023/04/11 02:36:05;;;;;;;16.77;4.03;;;10.50;99.90;;;;;;5056265;28;20471;-57
2023/04/11 02:38:31;;;;;;;20.97;3.90;;;10.50;99.90;;;;;;5056214;28;20453;-57
2023/04/11 02:40:59;;;;;;;23.73;4.67;;;10.40;99.90;;;;;;5055953;28;20446;-57
2023/04/11 02:43:26;;;;;;;14.50;3.80;;;10.40;99.90;;;;;;5055721;28;20812;-57
2023/04/11 02:45:52;;;;;;;19.00;3.63;;;10.40;99.90;;;;;;5056056;28;20472;-57
2023/04/11 02:48:19;;;;;;;22.30;3.57;;;10.40;99.90;;;;;;5056093;28;20446;-57
2023/04/11 02:50:47;;;;;;;12.77;3.63;;;10.30;99.90;;;;;;5055924;28;20449;-57
2023/04/11 02:53:15;;;;;;;17.93;4.63;;;10.30;99.90;;;;;;5055540;28;20457;-57
2023/04/11 02:55:42;;;;;;;17.57;3.33;;;10.30;99.90;;;;;;5055634;28;20450;-56
2023/04/11 02:58:08;;;;;;;15.50;3.80;;;10.20;99.90;;;;;;5055775;28;20524;-57
2023/04/11 03:00:36;;;;;;;16.67;3.53;;;10.20;99.90;;;;;;5055763;28;20457;-56
2023/04/11 03:03:04;;;;;;;11.20;3.83;;;10.20;99.90;;;;;;5055721;28;20453;-56
2023/04/11 03:05:30;;;;;;;14.97;4.03;;;10.20;99.90;;;;;;5055417;28;20940;-56
2023/04/11 03:07:58;;;;;;;14.80;4.00;;;10.10;99.90;;;;;;5055608;28;20442;-56
2023/04/11 03:10:25;;;;;;;16.60;3.47;;;10.10;99.90;;;;;;5055228;28;20940;-57
2023/04/11 03:12:52;;;;;;;13.33;3.37;;;10.10;99.90;;;;;;5055343;28;20445;-56
2023/04/11 03:15:19;;;;;;;19.57;4.17;;;10.10;99.90;;;;;;5055117;28;20846;-56
2023/04/11 03:17:45;;;;;;;20.03;5.53;;;10.10;99.90;;;;;;5055307;28;20481;-56
2023/04/11 03:20:18;;;;;;;16.80;3.40;;;10.00;99.90;;;;;;5055350;28;20448;-56
2023/04/11 03:22:45;;;;;;;21.00;4.13;;;10.10;99.90;;;;;;5055375;28;20430;-57
2023/04/11 03:25:13;;;;;;;24.00;4.30;;;10.00;99.90;;;;;;5055237;28;20843;-57
2023/04/11 03:27:40;;;;;;;17.77;3.83;;;10.00;99.90;;;;;;5055209;28;20445;-56
2023/04/11 03:30:08;;;;;;;23.13;3.97;;;10.00;99.90;;;;;;5055151;28;20450;-57
2023/04/11 03:32:35;;;;;;;14.73;3.97;;;10.00;99.90;;;;;;5055123;28;20453;-57
2023/04/11 03:35:01;;;;;;;22.70;4.77;;;10.00;99.90;;;;;;5055048;28;20519;-57
2023/04/11 03:37:28;;;;;;;22.93;3.80;;;10.00;99.90;;;;;;5054646;28;20514;-57
2023/04/11 03:39:55;;;;;;;19.10;5.37;;;10.00;99.90;;;;;;5054981;28;20441;-57
2023/04/11 03:42:23;;;;;;;13.57;4.13;;;10.00;99.90;;;;;;5054839;28;20515;-57
2023/04/11 03:44:49;;;;;;;10.47;2.97;;;9.90;99.90;;;;;;5054601;28;20983;-57
2023/04/11 03:47:16;;;;;;;21.47;4.60;;;10.00;99.90;;;;;;5055127;28;20821;-57
2023/04/11 03:49:43;;;;;;;17.73;4.30;;;10.00;99.90;;;;;;5054885;28;20456;-57
2023/04/11 03:52:10;;;;;;;15.47;3.57;;;10.00;99.90;;;;;;5055261;28;20923;-57
2023/04/11 03:54:36;;;;;;;21.13;4.30;;;10.00;99.90;;;;;;5053964;28;20991;-57
2023/04/11 03:57:03;;;;;;;12.30;4.00;;;10.00;99.90;;;;;;5054285;28;20513;-57
2023/04/11 03:59:31;;;;;;;14.70;3.67;;;10.10;99.90;;;;;;5054691;28;20450;-56
2023/04/11 04:01:58;;;;;;;9.20;3.27;;;10.10;99.90;;;;;;5054401;28;20495;-56
2023/04/11 04:04:25;;;;;;;12.80;3.50;;;10.10;99.90;;;;;;5054520;28;20496;-57
2023/04/11 04:06:55;;;;;;;14.33;3.23;;;10.10;99.90;;;;;;5054542;28;20823;-57
2023/04/11 04:09:22;;;;;;;16.33;4.73;;;10.10;99.90;;;;;;5054516;28;20441;-57
2023/04/11 04:11:49;;;;;;;15.50;3.50;;;10.10;99.90;;;;;;5054352;28;20442;-57
2023/04/11 04:14:15;;;;;;;15.53;3.93;;;10.00;99.90;;;;;;5053764;28;21017;-56
2023/04/11 04:16:43;;;;;;;15.80;3.33;;;10.10;99.90;;;;;;5054182;28;20519;-57
2023/04/11 04:19:10;;;;;;;14.07;3.93;;;10.00;99.90;;;;;;5054268;28;20454;-57
2023/04/11 04:21:37;;;;;;;18.00;4.43;;;10.00;99.90;;;;;;5054261;28;20456;-57
2023/04/11 04:24:04;;;;;;;24.13;6.47;;;10.00;99.90;;;;;;5054162;28;20883;-57
2023/04/11 04:26:31;;;;;;;19.07;5.60;;;10.00;99.90;;;;;;5054108;28;20457;-57
2023/04/11 04:29:03;;;;;;;14.40;4.40;;;10.00;99.90;;;;;;5054058;28;20437;-57
2023/04/11 04:31:32;;;;;;;24.90;4.80;;;10.00;99.90;;;;;;5054048;28;20487;-57
2023/04/11 04:34:01;;;;;;;25.30;4.07;;;10.00;99.90;;;;;;5053921;28;20469;-56
2023/04/11 04:36:29;;;;;;;14.07;3.40;;;9.90;99.90;;;;;;5053993;28;20445;-57
2023/04/11 04:39:00;;;;;;;15.80;4.40;;;9.90;99.90;;;;;;5053642;28;20543;-56
2023/04/11 04:41:35;;;;;;;21.87;3.87;;;9.90;99.90;;;;;;5053670;28;20487;-57
2023/04/11 04:44:03;;;;;;;17.60;3.93;;;9.90;99.90;;;;;;5053779;28;20472;-56
2023/04/11 04:46:35;;;;;;;20.67;4.90;;;10.00;99.90;;;;;;5053439;28;20959;-57
2023/04/11 04:49:03;;;;;;;18.80;3.70;;;9.90;99.90;;;;;;5053504;28;20905;-57
2023/04/11 04:51:30;;;;;;;18.07;4.43;;;9.90;99.90;;;;;;5053694;28;20446;-57
2023/04/11 04:53:58;;;;;;;14.30;4.53;;;9.90;99.90;;;;;;5053562;28;20466;-57
2023/04/11 04:56:25;;;;;;;10.80;3.10;;;9.80;99.90;;;;;;5053602;28;20457;-57
2023/04/11 04:58:51;;;;;;;22.03;5.53;;;9.80;99.90;;;;;;5053440;28;20524;-57
2023/04/11 05:01:19;;;;;;;11.23;3.67;;;9.80;99.90;;;;;;5053518;28;20446;-57
2023/04/11 05:03:49;;;;;;;10.83;3.43;;;9.80;99.90;;;;;;5053384;28;20476;-57
2023/04/11 05:06:17;;;;;;;19.87;4.00;;;9.80;99.90;;;;;;5053438;28;20799;-56
2023/04/11 05:08:44;;;;;;;19.30;3.90;;;9.80;99.90;;;;;;5053079;28;20955;-57
2023/04/11 05:11:10;;;;;;;15.20;3.70;;;9.80;99.90;;;;;;5053057;28;20456;-57
2023/04/11 05:13:37;;;;;;;16.30;3.97;;;9.90;99.90;;;;;;5052995;28;20979;-56
2023/04/11 05:16:04;;;;;;;11.13;3.53;;;9.80;99.90;;;;;;5053058;28;20943;-57
2023/04/11 05:18:31;;;;;;;15.30;3.80;;;9.80;99.90;;;;;;5053388;28;20485;-57
2023/04/11 05:20:58;;;;;;;14.00;4.07;;;9.90;99.90;;;;;;5053296;28;20541;-56
2023/04/11 05:23:26;;;;;;;14.23;4.80;;;9.90;99.90;;;;;;5053232;28;20473;-56
2023/04/11 05:25:52;;;;;;;20.33;3.73;;;9.90;99.90;;;;;;5053314;28;20471;-57
2023/04/11 05:28:19;;;;;;;14.03;4.40;;;9.90;99.90;;;;;;5053179;28;20860;-56
2023/04/11 05:30:46;;;;;;;18.70;4.70;;;9.90;99.90;;;;;;5053258;28;20798;-57
2023/04/11 05:33:14;;;;;;;18.53;4.53;;;9.90;99.90;;;;;;5053134;28;20865;-57
2023/04/11 05:35:41;;;;;;;13.13;3.03;;;9.90;99.90;;;;;;5053246;28;20450;-57
2023/04/11 05:38:08;;;;;;;13.43;3.47;;;9.90;99.90;;;;;;5052796;28;21023;-57
2023/04/11 05:40:36;;;;;;;13.00;4.10;;;9.90;99.90;;;;;;5052998;28;20943;-57
2023/04/11 05:43:04;;;;;;;14.93;3.90;;;9.90;99.90;;;;;;5053092;28;20473;-57
2023/04/11 05:45:30;;;;;;;16.63;4.77;;;9.90;99.90;;;;;;5053300;28;20537;-57
2023/04/11 05:47:57;;;;;;;12.43;4.47;;;9.90;99.90;;;;;;5053102;28;20468;-57
2023/04/11 05:50:24;;;;;;;19.87;4.03;;;9.90;99.90;;;;;;5053082;28;20454;-57
2023/04/11 05:52:51;;;;;;;10.70;4.53;;;10.00;99.90;;;;;;5052772;28;20445;-57
2023/04/11 05:55:18;;;;;;;20.10;4.70;;;10.00;99.90;;;;;;5052973;28;20511;-56
2023/04/11 05:57:46;;;;;;;21.83;3.90;;;9.90;99.90;;;;;;5053021;28;20485;-57
2023/04/11 06:00:15;;;;;;;12.80;4.23;;;9.90;99.90;;;;;;5052997;28;20449;-57
2023/04/11 06:02:42;;;;;;;10.53;3.60;;;9.90;99.90;;;;;;5053123;28;20531;-57
2023/04/11 06:05:10;;;;;;;23.03;4.90;;;9.90;99.90;;;;;;5052957;28;20476;-57
2023/04/11 06:07:38;;;;;;;10.90;3.97;;;10.00;99.90;;;;;;5052989;28;20452;-57
2023/04/11 06:10:06;;;;;;;13.93;3.67;;;10.10;99.90;;;;;;5052922;28;20445;-57
2023/04/11 06:12:32;;;;;;;11.33;4.60;;;10.10;99.90;;;;;;5052490;28;20948;-57
2023/04/11 06:15:00;;;;;;;14.50;6.20;;;10.10;99.80;;;;;;5052752;28;20485;-56
2023/04/11 06:17:27;;;;;;;13.50;4.27;;;10.10;99.30;;;;;;5052679;28;20446;-56
2023/04/11 06:19:54;;;;;;;16.37;4.57;;;10.20;99.50;;;;;;5055673;28;20456;-57
2023/04/11 06:22:20;;;;;;;19.90;3.97;;;10.20;99.60;;;;;;5056507;28;20495;-57
2023/04/11 06:24:47;;;;;;;15.07;3.90;;;10.30;98.80;;;;;;5056107;28;20476;-57
2023/04/11 06:27:14;;;;;;;12.83;3.93;;;10.30;98.70;;;;;;5056427;28;20458;-57
2023/04/11 06:29:42;;;;;;;9.80;3.90;;;10.40;98.50;;;;;;5056327;28;20468;-57
2023/04/11 06:32:11;;;;;;;7.60;3.50;;;10.40;98.80;;;;;;5056286;28;20896;-57
2023/04/11 06:34:38;;;;;;;13.63;3.43;;;10.30;99.20;;;;;;5056209;28;20476;-57
2023/04/11 06:37:06;;;;;;;21.93;4.83;;;10.40;98.80;;;;;;5055794;28;20950;-56
2023/04/11 06:39:33;;;;;;;17.73;4.10;;;10.40;98.70;;;;;;5056071;28;20931;-57
2023/04/11 06:42:00;;;;;;;13.37;3.33;;;10.50;99.60;;;;;;5055850;28;20457;-56
2023/04/11 06:44:27;;;;;;;21.63;4.83;;;10.50;98.90;;;;;;5056064;28;20472;-56
2023/04/11 06:46:54;;;;;;;12.93;3.10;;;10.60;99.20;;;;;;5055695;28;20465;-57
2023/04/11 06:49:23;;;;;;;9.50;3.30;;;10.60;99.00;;;;;;5055993;28;20438;-57
2023/04/11 06:51:49;;;;;;;16.77;3.33;;;10.60;98.90;;;;;;5056026;28;20454;-57
2023/04/11 06:54:17;;;;;;;18.57;3.10;;;10.50;98.40;;;;;;5055585;28;20983;-57
2023/04/11 06:56:44;;;;;;;13.87;3.40;;;10.40;98.80;;;;;;5055630;28;20549;-57
2023/04/11 06:59:11;;;;;;;16.77;3.23;;;10.50;99.00;;;;;;5055728;28;20531;-56
2023/04/11 07:01:38;;;;;;;16.07;3.30;;;10.60;99.20;;;;;;5055441;28;20460;-57
2023/04/11 07:04:05;;;;;;;12.97;3.10;;;10.60;98.90;;;;;;5055659;28;20469;-57
2023/04/11 07:06:34;;;;;;;14.67;3.17;;;10.60;98.60;;;;;;5055087;28;20446;-56
2023/04/11 07:09:00;;;;;;;18.20;4.20;;;10.70;99.10;;;;;;5055440;28;20457;-57
2023/04/11 07:11:27;;;;;;;19.13;3.63;;;10.70;99.50;;;;;;5055538;28;20449;-57
2023/04/11 07:13:55;;;;;;;11.70;2.97;;;10.70;97.90;;;;;;5055923;28;20833;-57
2023/04/11 07:16:22;;;;;;;12.00;3.97;;;10.70;98.10;;;;;;5055504;28;20817;-57
2023/04/11 07:18:49;;;;;;;11.87;3.23;;;10.70;98.20;;;;;;5055249;28;20481;-56
2023/04/11 07:21:15;;;;;;;10.17;5.17;;;10.80;97.80;;;;;;5055298;28;20486;-57
2023/04/11 07:23:43;;;;;;;14.87;3.40;;;10.90;97.00;;;;;;5055015;28;20983;-57
2023/04/11 07:26:10;;;;;;;15.13;3.50;;;10.90;96.80;;;;;;5055314;28;20450;-57
2023/04/11 07:28:39;;;;;;;12.13;2.97;;;10.90;97.20;;;;;;5055241;28;20445;-57
2023/04/11 07:31:06;;;;;;;14.30;2.50;;;11.00;97.30;;;;;;5053769;28;20507;-57
2023/04/11 07:33:33;;;;;;;14.50;2.93;;;11.00;96.80;;;;;;5055078;28;20539;-57
2023/04/11 07:36:00;;;;;;;11.03;3.10;;;10.90;96.20;;;;;;5055091;28;20542;-57
2023/04/11 07:38:28;;;;;;;10.50;2.50;;;10.90;96.50;;;;;;5054787;28;20504;-56
2023/04/11 07:40:57;;;;;;;8.93;2.47;;;11.00;96.40;;;;;;5054901;28;20572;-57
2023/04/11 07:43:25;;;;;;;14.47;2.83;;;11.10;96.30;;;;;;5054803;28;20426;-56
2023/04/11 07:45:52;;;;;;;7.60;3.07;;;11.30;96.50;;;;;;5054840;28;20452;-56
2023/04/11 07:48:21;;;;;;;10.07;2.20;;;11.40;96.50;;;;;;5054906;28;20448;-57
2023/04/11 07:50:47;;;;;;;13.30;2.93;;;11.60;94.70;;;;;;5055131;28;20452;-57
2023/04/11 07:53:14;;;;;;;9.00;2.17;;;11.70;94.70;;;;;;5054356;28;20955;-56
2023/04/11 07:55:41;;;;;;;14.63;2.47;;;11.80;93.80;;;;;;5054716;28;20452;-56
2023/04/11 07:58:09;;;;;;;8.30;1.97;;;11.80;94.10;;;;;;5054641;28;20481;-57
2023/04/11 08:00:36;;;;;;;9.23;2.57;;;11.70;93.60;;;;;;5054278;28;20982;-57
2023/04/11 08:03:05;;;;;;;9.07;2.50;;;11.80;93.70;;;;;;5054615;28;20446;-57
2023/04/11 08:05:33;;;;;;;10.93;2.27;;;11.90;93.20;;;;;;5054475;28;20540;-57
2023/04/11 08:08:00;;;;;;;15.93;3.63;;;12.00;93.10;;;;;;5054506;28;20460;-57
2023/04/11 08:10:27;;;;;;;12.03;2.47;;;12.00;92.90;;;;;;5054513;28;20453;-57
2023/04/11 08:12:57;;;;;;;23.57;4.93;;;12.10;93.00;;;;;;5054452;28;20458;-57
2023/04/11 08:15:25;;;;;;;6.20;2.33;;;12.30;92.80;;;;;;5054099;28;20473;-57
2023/04/11 08:17:55;;;;;;;7.13;2.53;;;12.30;91.40;;;;;;5054233;28;20450;-57
2023/04/11 08:20:22;;;;;;;7.23;2.37;;;12.40;91.40;;;;;;5053883;28;20796;-57
2023/04/11 08:22:48;;;;;;;12.27;3.40;;;12.40;90.50;;;;;;5054215;28;20446;-57
2023/04/11 08:25:18;;;;;;;6.07;2.23;;;12.40;88.30;;;;;;5054235;28;20830;-57
2023/04/11 08:27:45;;;;;;;6.60;2.40;;;12.50;90.10;;;;;;5054118;28;20446;-56
2023/04/11 08:30:12;;;;;;;6.00;1.83;;;12.50;90.10;;;;;;5054067;28;20488;-57
2023/04/11 08:32:41;;;;;;;7.80;2.50;;;12.60;89.00;;;;;;5053964;28;20813;-57
2023/04/11 08:35:09;;;;;;;6.13;1.93;;;12.70;86.70;;;;;;5053958;28;20892;-57
2023/04/11 08:37:35;;;;;;;4.73;1.87;;;12.70;87.80;;;;;;5053891;28;20815;-57
2023/04/11 08:40:05;;;;;;;4.83;2.13;;;12.60;85.20;;;;;;5053787;28;20493;-57
2023/04/11 08:42:32;;;;;;;10.23;2.07;;;12.60;87.90;;;;;;5053478;28;20460;-57
2023/04/11 08:45:02;;;;;;;5.67;1.73;;;12.60;86.80;;;;;;5053840;28;20470;-57
2023/04/11 08:47:29;;;;;;;5.23;1.70;;;12.50;85.60;;;;;;5053802;28;20434;-57
2023/04/11 08:49:57;;;;;;;6.33;1.70;;;12.60;86.80;;;;;;5053806;28;20533;-57
2023/04/11 08:52:25;;;;;;;13.13;3.10;;;12.50;82.40;;;;;;5053438;28;20974;-57
2023/04/11 08:54:53;;;;;;;11.50;2.47;;;12.30;83.20;;;;;;5053223;28;20991;-57
2023/04/11 08:57:26;;;;;;;5.43;1.80;;;12.30;83.00;;;;;;5053269;28;20454;-57
2023/04/11 08:59:54;;;;;;;5.53;2.17;;;12.30;80.90;;;;;;5053239;28;20477;-57
2023/04/11 09:02:21;;;;;;;5.43;1.90;;;12.20;79.10;;;;;;5053287;28;20989;-57
2023/04/11 09:04:47;;;;;;;9.03;1.57;;;12.10;81.00;;;;;;5053490;28;20466;-57
2023/04/11 09:07:16;;;;;;;8.93;2.13;;;12.20;84.30;;;;;;5054354;28;20445;-57
2023/04/11 09:09:43;;;;;;;9.60;1.80;;;12.30;81.50;;;;;;5053598;28;20450;-57
2023/04/11 09:12:10;;;;;;;8.73;2.00;;;12.30;82.00;;;;;;5053330;28;20445;-56
2023/04/11 09:14:37;;;;;;;11.60;1.80;;;12.30;83.40;;;;;;5053401;28;20465;-57
2023/04/11 09:17:05;;;;;;;7.60;1.80;;;12.30;79.80;;;;;;5053203;28;20850;-57
2023/04/11 09:19:33;;;;;;;9.20;2.60;;;12.30;77.30;;;;;;5053324;28;20473;-57
2023/04/11 09:22:02;;;;;;;9.03;2.47;;;12.20;81.60;;;;;;5053327;28;20467;-56
2023/04/11 09:24:31;;;;;;;5.93;2.10;;;12.30;82.30;;;;;;5052973;28;20572;-57
2023/04/11 09:27:09;;;;;;;7.00;2.17;;;12.30;84.00;;;;;;5053268;28;20445;-57
2023/04/11 09:29:37;;;;;;;6.87;2.40;;;12.60;84.80;;;;;;5052863;28;20969;-57
2023/04/11 09:32:04;;;;;;;10.10;2.20;;;12.90;83.70;;;;;;5052959;28;20489;-57
2023/04/11 09:34:33;;;;;;;9.70;2.30;;;13.30;79.60;;;;;;5053185;28;20869;-57
2023/04/11 09:37:00;;;;;;;4.50;1.90;;;13.50;79.10;;;;;;5053241;28;20869;-57
2023/04/11 09:39:28;;;;;;;6.60;2.50;;;13.60;78.80;;;;;;5053197;28;20591;-57
2023/04/11 09:41:56;;;;;;;10.33;2.13;;;13.60;80.30;;;;;;5052847;28;20489;-57
2023/04/11 09:44:36;;;;;;;7.27;2.20;;;13.70;79.90;;;;;;5053102;28;20527;-57
2023/04/11 09:47:02;;;;;;;9.50;2.17;;;13.70;77.40;;;;;;5053374;28;20485;-57
2023/04/11 09:49:29;;;;;;;15.77;2.70;;;13.60;77.70;;;;;;5053109;28;20444;-57
2023/04/11 09:51:58;;;;;;;13.63;1.87;;;13.70;74.60;;;;;;5053076;28;20449;-57
2023/04/11 09:54:26;;;;;;;9.97;2.97;;;13.80;74.00;;;;;;5055009;28;21022;-56
2023/04/11 09:56:52;;;;;;;7.63;2.07;;;13.80;73.20;;;;;;5056626;28;20457;-57
2023/04/11 09:59:21;;;;;;;9.47;3.17;;;14.00;75.80;;;;;;5056908;28;20492;-57
2023/04/11 10:01:50;;;;;;;7.03;2.10;;;14.10;73.40;;;;;;5057054;28;20449;-57
2023/04/11 10:04:19;;;;;;;7.60;1.63;;;14.40;74.30;;;;;;5056831;28;20535;-57
2023/04/11 10:06:56;;;;;;;5.10;1.27;;;14.60;69.10;;;;;;5056890;28;20822;-57
2023/04/11 10:09:23;;;;;;;6.73;2.00;;;14.40;61.40;;;;;;5056894;28;20440;-57
2023/04/11 10:11:50;;;;;;;8.70;2.40;;;13.90;65.00;;;;;;5056783;28;20450;-57
2023/04/11 10:14:43;;;;;;;4.90;1.80;;;13.70;66.70;;;;;;5056733;28;20472;-57
2023/04/11 10:17:12;;;;;;;6.80;1.70;;;13.80;63.30;;;;;;5056715;28;20440;-57
2023/04/11 10:19:40;;;;;;;4.60;1.70;;;13.90;62.80;;;;;;5056319;28;20481;-56
2023/04/11 10:22:06;;;;;;;7.97;2.53;;;14.10;63.50;;;;;;5056493;28;20449;-57
2023/04/11 10:24:33;;;;;;;5.57;1.70;;;14.40;63.20;;;;;;5056617;28;20461;-57
2023/04/11 10:27:02;;;;;;;4.83;1.70;;;14.60;58.40;;;;;;5056461;28;20453;-57
2023/04/11 10:29:50;;;;;;;4.23;1.80;;;15.00;60.10;;;;;;5056959;28;20454;-57
2023/04/11 10:32:22;;;;;;;5.70;1.40;;;15.70;58.50;;;;;;5056468;28;20426;-57
2023/04/11 10:35:22;;;;;;;4.93;1.60;;;16.20;53.10;;;;;;5056020;28;21000;-57
2023/04/11 10:37:50;;;;;;;5.83;1.63;;;16.60;53.30;;;;;;4995572;28;20471;-57
2023/04/11 10:40:19;;;;;;;4.30;1.20;;;16.80;49.30;;;;;;4995054;28;20926;-57
2023/04/11 10:42:47;;;;;;;4.43;1.67;;;16.90;51.40;;;;;;5023146;28;20544;-57
2023/04/11 10:45:16;;;;;;;3.63;1.40;;;17.20;52.00;;;;;;5056198;28;20818;-57
2023/04/11 10:47:44;;;;;;;7.07;1.60;;;17.50;50.90;;;;;;5055803;28;20492;-57
2023/04/11 10:50:35;;;;;;;5.47;1.67;;;17.70;47.50;;;;;;5056064;28;20446;-57
2023/04/11 10:53:03;;;;;;;4.23;1.47;;;17.90;47.80;;;;;;5055593;28;20969;-57
2023/04/11 10:55:43;;;;;;;5.03;1.37;;;18.40;47.50;;;;;;5055927;28;20472;-57
2023/04/11 10:58:12;;;;;;;4.93;1.60;;;18.00;44.60;;;;;;5055816;28;20426;-57
2023/04/11 11:01:25;;;;;;;6.40;1.40;;;17.10;45.10;;;;;;5055811;28;20521;-57
2023/04/11 11:03:56;;;;;;;4.57;1.47;;;16.50;48.60;;;;;;5055643;28;20472;-57
2023/04/11 11:06:24;;;;;;;5.27;1.60;;;16.90;49.70;;;;;;5055767;28;20473;-57
2023/04/11 11:08:51;;;;;;;3.83;2.03;;;17.50;46.00;;;;;;5055911;28;20499;-57
2023/04/11 11:11:18;;;;;;;7.17;1.70;;;18.10;45.10;;;;;;5055910;28;20520;-57
2023/04/11 11:13:46;;;;;;;2.50;1.27;;;18.00;45.50;;;;;;5055775;28;20556;-57
2023/04/11 11:16:15;;;;;;;6.63;1.63;;;18.40;45.20;;;;;;5055666;28;20474;-57
2023/04/11 11:18:45;;;;;;;4.87;1.80;;;18.80;43.10;;;;;;5055687;28;20499;-57
2023/04/11 11:21:14;;;;;;;5.10;1.70;;;19.30;41.60;;;;;;5055518;28;20453;-57
2023/04/11 11:23:53;;;;;;;6.77;1.80;;;19.40;40.60;;;;;;5055541;28;20833;-58
2023/04/11 11:26:20;;;;;;;4.57;1.77;;;18.70;41.10;;;;;;5055621;28;20918;-58
2023/04/11 11:28:47;;;;;;;4.83;2.03;;;18.00;42.00;;;;;;5055575;28;20454;-58
2023/04/11 11:31:14;;;;;;;6.10;1.87;;;18.00;42.70;;;;;;5055550;28;20469;-57
2023/04/11 11:33:41;;;;;;;4.37;1.20;;;18.50;42.30;;;;;;5054921;28;20462;-57
2023/04/11 11:36:10;;;;;;;5.83;1.50;;;18.40;42.00;;;;;;5055162;28;20446;-57
2023/04/11 11:38:38;;;;;;;3.40;1.30;;;18.20;42.00;;;;;;5055321;28;20446;-58
2023/04/11 11:41:05;;;;;;;5.20;2.07;;;18.30;42.50;;;;;;5054999;28;20490;-57
2023/04/11 11:43:36;;;;;;;6.43;1.80;;;18.50;41.10;;;;;;5055819;28;20466;-57
2023/04/11 11:46:08;;;;;;;7.27;2.40;;;19.00;41.00;;;;;;5054678;28;20476;-57
2023/04/11 11:48:35;;;;;;;3.33;1.60;;;19.70;38.80;;;;;;5055010;28;20446;-57
2023/04/11 11:51:01;;;;;;;4.93;1.30;;;20.50;38.00;;;;;;5054549;28;20815;-58
2023/04/11 11:53:28;;;;;;;4.43;1.43;;;21.40;38.40;;;;;;5054780;28;20473;-58
2023/04/11 11:55:56;;;;;;;5.57;1.67;;;21.90;35.00;;;;;;5054733;28;20457;-57
2023/04/11 11:58:23;;;;;;;4.37;1.47;;;21.70;34.40;;;;;;5054826;28;20492;-58
2023/04/11 12:00:51;;;;;;;5.50;1.60;;;21.70;35.60;;;;;;5054803;28;20474;-58
2023/04/11 12:03:21;;;;;;;5.20;1.50;;;21.80;35.60;;;;;;5054603;28;20456;-58
2023/04/11 12:05:50;;;;;;;5.43;2.00;;;22.10;35.20;;;;;;5055186;28;20449;-57
2023/04/11 12:08:19;;;;;;;3.17;1.33;;;22.50;33.30;;;;;;5054579;28;20541;-58
2023/04/11 12:10:47;;;;;;;2.77;1.37;;;22.80;33.40;;;;;;5054647;28;20449;-58
2023/04/11 12:13:18;;;;;;;5.47;2.03;;;22.80;31.40;;;;;;5054019;28;20962;-57
2023/04/11 12:15:49;;;;;;;3.27;1.60;;;23.20;32.70;;;;;;5053806;28;20899;-57
2023/04/11 12:18:16;;;;;;;5.33;1.60;;;23.70;31.70;;;;;;5054085;28;20426;-56
2023/04/11 12:20:43;;;;;;;3.80;1.37;;;23.30;31.10;;;;;;5054130;28;20832;-58
2023/04/11 12:23:09;;;;;;;2.13;1.37;;;22.80;32.50;;;;;;5054310;28;20457;-58
2023/04/11 12:25:36;;;;;;;3.80;1.43;;;22.70;33.30;;;;;;5054478;28;20450;-58
2023/04/11 12:28:03;;;;;;;4.23;1.90;;;23.30;32.50;;;;;;5054364;28;20461;-58
2023/04/11 12:30:31;;;;;;;4.50;1.20;;;23.40;29.80;;;;;;5054149;28;20500;-58
2023/04/11 12:32:57;;;;;;;4.53;1.30;;;22.80;29.70;;;;;;5054102;28;20453;-58
2023/04/11 12:35:24;;;;;;;3.63;1.63;;;22.40;30.20;;;;;;5053928;28;20473;-57
2023/04/11 12:37:51;;;;;;;3.33;1.20;;;22.20;30.50;;;;;;5053966;28;20504;-58
2023/04/11 12:40:18;;;;;;;3.20;1.47;;;22.30;31.70;;;;;;5053831;28;20470;-58
2023/04/11 12:42:46;;;;;;;4.20;1.10;;;22.50;31.40;;;;;;5052821;28;20453;-57
2023/04/11 12:45:14;;;;;;;2.40;1.23;;;22.70;31.50;;;;;;5053052;28;20468;-57
2023/04/11 12:47:43;;;;;;;3.63;2.00;;;23.20;29.80;;;;;;5052984;28;20446;-58